Time;durP1;ratioP1;P1;durP2;ratioP2;P2;SDS_P1;SDS_P2;PMS_P1;PMS_P2;Temp;Humidity;BMP_temperature;BMP_pressure;BME280_temperature;BME280_humidity;BME280_pressure;Samples;Min_cycle;Max_cycle;Signal;HPM_P1;HPM_P2
2023/08/13 00:01:53;;;;;;;6.73;3.53;;;20.60;86.90;;;23.13;55.34;101529.00;5032882;28;20191;-65
2023/08/13 00:04:20;;;;;;;10.17;5.90;;;20.50;86.90;;;23.06;55.36;101534.47;5033107;28;20218;-64
2023/08/13 00:06:47;;;;;;;5.37;4.00;;;20.50;87.10;;;22.99;55.60;101523.03;5034476;28;20287;-64
2023/08/13 00:09:15;;;;;;;6.83;3.13;;;20.40;87.20;;;22.92;55.72;101521.56;5036011;28;20193;-64
2023/08/13 00:11:42;;;;;;;7.87;3.50;;;20.40;87.40;;;22.83;56.20;101535.34;5036245;28;20274;-64
2023/08/13 00:14:09;;;;;;;8.73;4.50;;;20.30;87.70;;;22.75;56.14;101529.50;5036879;28;20190;-64
2023/08/13 00:16:37;;;;;;;10.00;4.57;;;20.20;87.70;;;22.65;56.26;101522.06;5036347;28;20714;-64
2023/08/13 00:19:04;;;;;;;9.07;4.17;;;20.10;87.90;;;22.63;56.52;101523.34;5035941;28;20194;-64
2023/08/13 00:21:31;;;;;;;8.77;4.53;;;20.10;88.20;;;22.62;56.78;101529.75;5036074;28;20273;-63
2023/08/13 00:23:58;;;;;;;9.30;4.33;;;20.10;88.40;;;22.64;56.73;101524.97;5034922;28;20274;-65
2023/08/13 00:26:25;;;;;;;8.23;4.17;;;20.00;88.40;;;22.63;56.42;101524.13;5035646;28;20273;-63
2023/08/13 00:28:52;;;;;;;5.80;3.80;;;20.00;88.50;;;22.61;56.45;101531.63;5035865;28;20340;-63
2023/08/13 00:31:19;;;;;;;5.97;3.53;;;20.00;88.50;;;22.58;56.60;101524.00;5035521;28;20206;-64
2023/08/13 00:33:48;;;;;;;6.00;3.30;;;20.00;88.50;;;22.56;56.49;101528.00;5035928;28;20567;-61
2023/08/13 00:36:15;;;;;;;9.37;4.10;;;20.00;88.60;;;22.54;56.29;101530.88;5035258;28;20281;-62
2023/08/13 00:38:42;;;;;;;9.00;4.13;;;19.90;88.40;;;22.54;56.53;101530.06;5035385;28;20225;-62
2023/08/13 00:41:09;;;;;;;8.93;3.97;;;19.90;89.20;;;22.54;56.35;101536.25;5035424;28;20245;-63
2023/08/13 00:43:37;;;;;;;7.13;3.67;;;19.90;88.40;;;22.57;56.39;101533.13;5035738;28;20282;-64
2023/08/13 00:46:04;;;;;;;9.00;4.60;;;19.90;88.40;;;22.59;56.18;101533.69;5035397;28;20212;-64
2023/08/13 00:48:32;;;;;;;6.87;4.13;;;19.90;88.40;;;22.58;56.39;101544.66;5035411;28;20752;-63
2023/08/13 00:51:01;;;;;;;9.77;4.10;;;19.90;88.30;;;22.55;56.24;101543.28;5035033;28;20202;-63
2023/08/13 00:53:28;;;;;;;7.13;4.67;;;19.90;88.30;;;22.54;56.46;101549.69;5035157;28;20253;-63
2023/08/13 00:55:56;;;;;;;8.37;4.40;;;19.90;88.40;;;22.53;56.35;101542.69;5035518;28;20183;-63
2023/08/13 00:58:24;;;;;;;7.93;4.97;;;19.90;88.40;;;22.50;56.33;101535.09;5035759;28;20187;-64
2023/08/13 01:00:52;;;;;;;7.63;3.43;;;19.90;88.40;;;22.46;56.18;101550.03;5035005;28;20230;-64
2023/08/13 01:03:19;;;;;;;8.47;4.00;;;19.90;87.90;;;22.44;55.91;101546.75;5034931;28;20282;-61
2023/08/13 01:05:53;;;;;;;11.70;4.00;;;19.90;87.60;;;22.41;56.28;101547.22;5035355;28;20272;-63
2023/08/13 01:08:35;;;;;;;6.30;3.23;;;19.90;87.60;;;22.43;56.17;101547.81;5035053;28;20229;-65
2023/08/13 01:11:13;;;;;;;7.67;3.70;;;19.90;87.70;;;22.48;55.89;101549.78;5034301;28;20222;-64
2023/08/13 01:13:54;;;;;;;6.90;3.27;;;19.90;87.70;;;22.52;55.76;101549.09;5035149;28;20212;-64
2023/08/13 01:16:22;;;;;;;11.17;3.70;;;19.90;87.60;;;22.57;55.70;101543.84;5035434;28;20896;-63
2023/08/13 01:18:50;;;;;;;5.90;2.77;;;19.90;87.60;;;22.58;55.58;101537.41;5034409;28;20186;-64
2023/08/13 01:21:17;;;;;;;8.37;3.97;;;20.00;87.50;;;22.60;55.58;101540.69;5034911;28;20214;-63
2023/08/13 01:23:45;;;;;;;7.70;3.87;;;19.90;87.40;;;22.61;55.60;101538.84;5034676;28;20345;-67
2023/08/13 01:26:18;;;;;;;8.60;4.13;;;20.00;87.50;;;22.60;55.62;101535.34;5034887;28;20198;-65
2023/08/13 01:28:53;;;;;;;7.80;4.47;;;20.00;87.40;;;22.62;55.44;101543.19;5034368;28;20279;-63
2023/08/13 01:31:29;;;;;;;6.13;3.90;;;20.00;87.30;;;22.63;55.48;101542.13;5034326;28;20268;-65
2023/08/13 01:33:58;;;;;;;13.20;4.30;;;20.00;87.20;;;22.66;55.25;101534.41;5034590;28;20190;-64
2023/08/13 01:36:27;;;;;;;8.73;3.87;;;20.00;86.90;;;22.66;55.22;101545.16;5034547;28;20655;-64
2023/08/13 01:38:58;;;;;;;7.97;4.10;;;20.00;86.90;;;22.67;55.01;101540.59;5034155;28;20218;-64
2023/08/13 01:41:35;;;;;;;11.13;3.90;;;20.00;86.80;;;22.62;55.36;101548.53;5034627;28;20187;-64
2023/08/13 01:44:02;;;;;;;8.70;3.73;;;20.00;86.80;;;22.61;55.43;101546.91;5034154;28;20570;-64
2023/08/13 01:46:30;;;;;;;7.73;3.60;;;20.00;86.80;;;22.60;55.46;101548.75;5034534;28;20194;-65
2023/08/13 01:48:57;;;;;;;7.73;3.40;;;20.00;86.80;;;22.60;55.41;101551.44;5033632;28;20280;-63
2023/08/13 01:51:24;;;;;;;8.33;3.40;;;20.00;86.90;;;22.61;55.29;101552.25;5034490;28;20214;-63
2023/08/13 01:53:51;;;;;;;7.73;3.63;;;20.00;86.90;;;22.61;55.41;101544.22;5034495;28;20194;-61
2023/08/13 01:56:19;;;;;;;7.87;3.80;;;20.00;86.90;;;22.61;55.36;101553.09;5034181;28;20626;-64
2023/08/13 01:58:46;;;;;;;9.50;3.50;;;20.00;86.90;;;22.60;55.42;101551.44;5033900;28;20652;-64
2023/08/13 02:01:13;;;;;;;7.87;3.73;;;20.00;86.90;;;22.61;55.32;101555.78;5034171;28;20225;-64
2023/08/13 02:03:40;;;;;;;6.53;3.70;;;20.00;86.80;;;22.62;55.19;101554.72;5034331;28;20202;-64
2023/08/13 02:06:07;;;;;;;8.60;4.27;;;20.00;86.80;;;22.66;55.41;101549.69;5034798;28;20187;-64
2023/08/13 02:08:34;;;;;;;10.57;5.00;;;20.00;87.10;;;22.73;55.25;101559.28;5033826;28;20249;-63
2023/08/13 02:11:01;;;;;;;6.87;5.00;;;20.00;87.10;;;22.84;55.00;101553.06;5034456;28;20206;-63
2023/08/13 02:13:29;;;;;;;7.10;4.60;;;20.10;87.30;;;22.94;54.67;101557.06;5034728;28;20221;-64
2023/08/13 02:16:01;;;;;;;10.03;4.43;;;20.20;86.70;;;22.95;53.82;101558.66;5034065;28;20277;-63
2023/08/13 02:18:29;;;;;;;8.33;3.90;;;20.20;85.80;;;22.99;54.32;101554.47;5034345;28;20535;-65
2023/08/13 02:20:56;;;;;;;4.77;3.20;;;20.20;86.00;;;23.05;54.41;101548.16;5033959;28;20211;-66
2023/08/13 02:23:23;;;;;;;8.80;4.40;;;20.30;86.40;;;23.16;54.11;101561.56;5033728;28;20292;-63
2023/08/13 02:25:52;;;;;;;4.80;3.20;;;20.40;86.20;;;23.24;53.61;101563.06;5033901;28;20193;-64
2023/08/13 02:28:19;;;;;;;7.90;3.20;;;20.40;85.10;;;23.22;53.13;101554.41;5033637;28;20313;-64
2023/08/13 02:30:49;;;;;;;6.27;3.33;;;20.40;84.50;;;23.17;53.03;101551.63;5033419;28;20277;-64
2023/08/13 02:33:17;;;;;;;8.63;3.20;;;20.40;84.40;;;23.16;53.57;101555.34;5033560;28;20201;-64
2023/08/13 02:35:44;;;;;;;6.37;4.10;;;20.50;85.00;;;23.17;53.40;101557.00;5033794;28;20218;-63
2023/08/13 02:38:11;;;;;;;5.00;3.23;;;20.50;84.60;;;23.17;53.53;101554.31;5033411;28;20199;-64
2023/08/13 02:40:38;;;;;;;7.47;3.50;;;20.50;84.60;;;23.16;53.30;101549.97;5033523;28;20213;-63
2023/08/13 02:43:05;;;;;;;8.90;3.63;;;20.50;84.60;;;23.15;53.32;101559.13;5033633;28;20202;-63
2023/08/13 02:45:32;;;;;;;8.63;4.00;;;20.50;84.70;;;23.11;53.50;101552.56;5033538;28;20285;-63
2023/08/13 02:48:01;;;;;;;8.27;3.50;;;20.40;84.70;;;23.07;53.70;101557.59;5033159;28;20269;-63
2023/08/13 02:50:28;;;;;;;7.57;4.30;;;20.40;84.70;;;23.00;53.65;101546.19;5033187;28;20284;-62
2023/08/13 02:52:55;;;;;;;5.87;3.03;;;20.40;84.80;;;22.96;53.89;101546.88;5033597;28;20198;-64
2023/08/13 02:55:22;;;;;;;6.63;3.90;;;20.40;84.90;;;22.92;53.98;101551.09;5033681;28;20217;-66
2023/08/13 02:57:49;;;;;;;7.17;3.60;;;20.30;85.00;;;22.84;54.69;101550.38;5033445;28;20190;-64
2023/08/13 03:00:35;;;;;;;7.40;3.90;;;20.30;85.30;;;22.77;54.62;101552.38;5032993;28;20603;-64
2023/08/13 03:03:04;;;;;;;7.80;3.80;;;20.20;85.70;;;22.72;54.79;101549.59;5033735;28;20244;-63
2023/08/13 03:05:32;;;;;;;7.73;4.07;;;20.20;85.90;;;22.67;54.86;101560.22;5033676;28;20214;-64
2023/08/13 03:07:59;;;;;;;8.13;3.80;;;20.10;86.00;;;22.60;55.26;101556.81;5033320;28;20277;-64
2023/08/13 03:10:26;;;;;;;7.40;3.97;;;20.10;86.30;;;22.57;55.18;101551.91;5033004;28;20271;-65
2023/08/13 03:12:53;;;;;;;9.50;3.80;;;20.00;86.40;;;22.54;55.39;101551.53;5033279;28;20229;-64
2023/08/13 03:15:20;;;;;;;7.30;3.77;;;20.00;86.60;;;22.50;55.29;101555.75;5032744;28;20666;-64
2023/08/13 03:17:47;;;;;;;10.10;4.20;;;19.90;86.70;;;22.48;55.59;101547.94;5032969;28;20651;-63
2023/08/13 03:20:16;;;;;;;6.77;4.53;;;19.90;87.00;;;22.47;55.61;101551.66;5032549;28;20218;-64
2023/08/13 03:22:43;;;;;;;9.27;4.60;;;19.90;87.40;;;22.45;55.80;101559.13;5033079;28;20341;-65
2023/08/13 03:25:10;;;;;;;8.90;3.97;;;19.80;88.10;;;22.46;55.60;101554.59;5033466;28;20199;-64
2023/08/13 03:27:37;;;;;;;9.77;4.67;;;19.80;87.40;;;22.46;55.89;101554.59;5033298;28;20198;-65
2023/08/13 03:30:06;;;;;;;7.87;4.37;;;19.80;87.50;;;22.46;56.06;101552.72;5032659;28;20299;-64
2023/08/13 03:32:33;;;;;;;7.73;3.93;;;19.80;87.60;;;22.44;55.91;101557.47;5033347;28;20205;-63
2023/08/13 03:35:00;;;;;;;7.83;4.40;;;19.80;87.70;;;22.43;56.04;101555.88;5033441;28;20187;-63
2023/08/13 03:37:28;;;;;;;7.97;4.23;;;19.80;87.70;;;22.37;56.09;101562.13;5032934;28;20191;-65
2023/08/13 03:39:55;;;;;;;7.10;3.90;;;19.80;87.70;;;22.36;56.00;101560.53;5032672;28;20237;-63
2023/08/13 03:42:22;;;;;;;8.07;3.60;;;19.80;87.80;;;22.33;56.04;101555.63;5035959;28;20206;-64
2023/08/13 03:44:49;;;;;;;5.40;3.77;;;19.70;87.90;;;22.37;56.27;101554.09;5036735;28;20296;-63
2023/08/13 03:47:16;;;;;;;6.10;3.53;;;19.70;88.00;;;22.37;56.32;101555.97;5037548;28;20186;-63
2023/08/13 03:49:44;;;;;;;9.80;4.47;;;19.70;88.00;;;22.36;56.22;101560.53;5036472;28;20350;-65
2023/08/13 03:52:11;;;;;;;7.13;4.00;;;19.70;88.00;;;22.37;56.29;101556.78;5037058;28;20201;-64
2023/08/13 03:54:40;;;;;;;4.67;3.87;;;19.70;88.00;;;22.40;55.89;101553.63;5036398;28;20602;-63
2023/08/13 03:57:07;;;;;;;7.80;4.57;;;19.70;88.10;;;22.40;56.06;101550.13;5035845;28;20195;-64
2023/08/13 03:59:34;;;;;;;8.97;4.47;;;19.70;88.10;;;22.40;55.99;101553.63;5035888;28;20714;-63
2023/08/13 04:02:01;;;;;;;10.50;4.30;;;19.70;88.10;;;22.36;56.34;101555.16;5036618;28;20191;-63
2023/08/13 04:04:28;;;;;;;8.47;4.40;;;19.70;88.30;;;22.33;56.27;101555.63;5036559;28;20187;-64
2023/08/13 04:06:55;;;;;;;8.20;4.10;;;19.70;88.20;;;22.29;56.58;101554.44;5036618;28;20197;-67
2023/08/13 04:09:22;;;;;;;8.20;4.60;;;19.70;88.30;;;22.27;56.70;101561.91;5036023;28;20305;-65
2023/08/13 04:11:51;;;;;;;7.17;4.40;;;19.70;88.50;;;22.28;56.77;101558.16;5036571;28;20558;-64
2023/08/13 04:14:18;;;;;;;6.83;3.73;;;19.70;88.60;;;22.28;56.71;101563.53;5036721;28;20198;-62
2023/08/13 04:16:45;;;;;;;4.57;3.63;;;19.70;88.50;;;22.28;56.38;101568.91;5036497;28;20192;-64
2023/08/13 04:19:12;;;;;;;5.27;3.93;;;19.70;88.50;;;22.24;56.77;101562.38;5036242;28;20589;-63
2023/08/13 04:21:39;;;;;;;6.97;4.23;;;19.60;88.50;;;22.21;56.76;101568.19;5036642;28;20301;-65
2023/08/13 04:24:07;;;;;;;7.53;4.13;;;19.60;88.60;;;22.19;56.62;101565.75;5036266;28;20195;-63
2023/08/13 04:26:34;;;;;;;7.03;3.73;;;19.60;88.50;;;22.17;56.82;101569.72;5035932;28;20215;-64
2023/08/13 04:29:02;;;;;;;4.57;3.10;;;19.60;88.50;;;22.18;56.79;101563.28;5036269;28;20221;-66
2023/08/13 04:31:29;;;;;;;8.00;3.67;;;19.60;88.50;;;22.17;56.65;101569.72;5036198;28;20208;-63
2023/08/13 04:33:56;;;;;;;6.90;3.80;;;19.60;88.60;;;22.17;57.04;101578.59;5036163;28;20244;-65
2023/08/13 04:36:23;;;;;;;5.67;3.80;;;19.60;88.80;;;22.12;57.03;101569.56;5035504;28;20631;-63
2023/08/13 04:38:50;;;;;;;5.97;4.07;;;19.50;88.90;;;22.07;56.84;101572.94;5024592;28;20205;-64
2023/08/13 04:41:19;;;;;;;6.00;3.87;;;19.50;88.90;;;22.03;57.21;101573.63;5036020;28;20214;-63
2023/08/13 04:43:46;;;;;;;9.23;3.87;;;19.50;89.10;;;22.00;57.40;101576.78;5036368;28;20264;-65
2023/08/13 04:46:14;;;;;;;7.33;3.80;;;19.50;89.30;;;21.95;57.48;101574.78;5035973;28;20563;-63
2023/08/13 04:48:44;;;;;;;5.53;4.13;;;19.50;89.40;;;21.92;57.48;101569.88;5036038;28;20218;-65
2023/08/13 04:51:15;;;;;;;7.43;4.83;;;19.40;89.50;;;21.93;58.00;101581.41;5036231;28;20637;-62
2023/08/13 04:53:42;;;;;;;6.03;4.20;;;19.40;89.60;;;21.91;57.74;101578.16;5034254;28;20205;-65
2023/08/13 04:56:10;;;;;;;7.07;3.77;;;19.40;89.70;;;21.91;57.96;101567.44;5035754;28;20193;-63
2023/08/13 04:58:37;;;;;;;8.53;4.30;;;19.40;89.70;;;21.92;57.55;101569.03;5036175;28;20245;-62
2023/08/13 05:01:05;;;;;;;8.93;4.57;;;19.30;89.70;;;21.93;57.43;101576.06;5035440;28;20695;-61
2023/08/13 05:03:34;;;;;;;9.97;4.43;;;19.30;89.60;;;21.89;57.73;101577.56;5035700;28;20252;-62
2023/08/13 05:06:01;;;;;;;8.33;4.77;;;19.30;89.60;;;21.87;57.20;101572.41;5035784;28;20197;-63
2023/08/13 05:08:28;;;;;;;9.13;4.13;;;19.30;89.50;;;21.89;57.77;101569.53;5035279;28;20629;-63
2023/08/13 05:10:55;;;;;;;9.37;4.40;;;19.30;89.60;;;21.90;57.43;101571.97;5035614;28;20549;-63
2023/08/13 05:13:22;;;;;;;5.17;3.67;;;19.30;89.50;;;21.93;57.28;101571.50;5035922;28;20225;-67
2023/08/13 05:15:49;;;;;;;10.67;4.10;;;19.30;89.50;;;21.96;57.42;101570.25;5035383;28;20554;-64
2023/08/13 05:18:16;;;;;;;6.57;4.13;;;19.30;89.30;;;21.96;57.13;101570.25;5035744;28;20195;-64
2023/08/13 05:20:46;;;;;;;9.47;4.43;;;19.30;89.10;;;21.89;57.18;101575.72;5034984;28;20216;-64
2023/08/13 05:23:13;;;;;;;5.20;3.20;;;19.30;89.10;;;21.93;57.24;101576.06;5035355;28;20555;-65
2023/08/13 05:25:40;;;;;;;7.20;3.70;;;19.40;89.30;;;21.99;57.33;101569.75;5034670;28;20201;-64
2023/08/13 05:28:07;;;;;;;7.23;3.70;;;19.40;89.10;;;22.00;56.94;101561.50;5035392;28;20522;-64
2023/08/13 05:30:38;;;;;;;4.97;3.20;;;19.40;88.90;;;22.02;56.80;101561.25;5034675;28;20232;-64
2023/08/13 05:33:06;;;;;;;6.57;3.83;;;19.40;88.80;;;22.04;56.92;101561.84;5035134;28;20278;-65
2023/08/13 05:35:33;;;;;;;10.57;4.27;;;19.40;88.60;;;22.05;56.67;101558.13;5034937;28;20277;-61
2023/08/13 05:38:02;;;;;;;8.50;3.73;;;19.40;88.40;;;22.05;56.54;101561.63;5034904;28;20199;-64
2023/08/13 05:40:30;;;;;;;9.43;3.53;;;19.40;88.40;;;22.09;56.59;101570.03;5034500;28;20209;-66
2023/08/13 05:42:57;;;;;;;7.23;3.40;;;19.40;88.30;;;22.11;56.20;101558.03;5034510;28;20202;-64
2023/08/13 05:45:24;;;;;;;7.23;3.50;;;19.50;88.30;;;22.16;56.13;101565.38;5034681;28;20202;-63
2023/08/13 05:47:51;;;;;;;9.57;3.80;;;19.50;88.20;;;22.17;56.15;101567.84;5035023;28;20209;-65
2023/08/13 05:50:18;;;;;;;11.50;3.90;;;19.50;88.00;;;22.20;56.06;101562.00;5034418;28;20222;-64
2023/08/13 05:52:45;;;;;;;6.80;3.57;;;19.60;88.10;;;22.26;55.86;101560.28;5034454;28;20738;-64
2023/08/13 05:55:15;;;;;;;4.20;3.63;;;19.60;87.90;;;22.29;55.83;101564.34;5034929;28;20659;-65
2023/08/13 05:57:42;;;;;;;8.40;3.67;;;19.60;87.70;;;22.32;55.69;101554.00;5033866;28;20266;-65
2023/08/13 06:00:11;;;;;;;4.33;2.73;;;19.70;87.60;;;22.42;55.49;101564.13;5034160;28;20214;-64
2023/08/13 06:02:39;;;;;;;9.17;3.57;;;19.80;87.80;;;22.51;55.77;101558.19;5034680;28;20212;-64
2023/08/13 06:05:06;;;;;;;9.00;3.77;;;19.80;87.50;;;22.58;54.83;101561.56;5034285;28;20186;-64
2023/08/13 06:07:34;;;;;;;5.80;3.00;;;19.80;86.80;;;22.61;55.11;101563.81;5034592;28;20198;-65
2023/08/13 06:10:02;;;;;;;4.77;3.07;;;19.90;86.80;;;22.66;54.83;101563.94;5033973;28;20256;-64
2023/08/13 06:12:31;;;;;;;7.50;3.10;;;19.90;86.60;;;22.72;54.66;101559.53;5034422;28;20210;-64
2023/08/13 06:14:58;;;;;;;6.77;3.53;;;20.00;86.50;;;22.77;54.51;101563.13;5034462;28;20547;-64
2023/08/13 06:17:25;;;;;;;8.90;3.67;;;20.00;86.30;;;22.74;54.43;101562.78;5033928;28;20198;-64
2023/08/13 06:19:53;;;;;;;9.67;3.47;;;20.00;85.90;;;22.73;54.64;101572.69;5033918;28;20260;-66
2023/08/13 06:22:21;;;;;;;5.33;3.23;;;20.10;86.10;;;22.74;54.71;101579.72;5034138;28;20273;-64
2023/08/13 06:24:48;;;;;;;9.97;3.53;;;20.20;86.00;;;22.79;54.35;101571.78;5035367;28;20229;-64
2023/08/13 06:27:15;;;;;;;5.37;3.57;;;20.20;86.00;;;22.75;54.48;101575.97;5034093;28;20203;-65
2023/08/13 06:29:44;;;;;;;6.67;3.40;;;20.20;86.00;;;22.77;54.59;101576.53;5033674;28;20218;-61
2023/08/13 06:32:31;;;;;;;8.43;3.17;;;20.20;86.00;;;22.85;54.66;101592.31;5033611;28;20205;-62
2023/08/13 06:34:58;;;;;;;6.10;3.20;;;20.20;86.10;;;23.00;54.55;101586.47;5031758;28;20527;-63
2023/08/13 06:37:25;;;;;;;8.47;3.83;;;20.30;86.40;;;23.15;54.24;101591.34;5022077;28;20225;-65
2023/08/13 06:39:52;;;;;;;8.53;3.10;;;20.40;86.30;;;23.31;54.17;101591.44;5033453;28;20233;-65
2023/08/13 06:42:19;;;;;;;8.37;3.73;;;20.50;86.40;;;23.47;53.96;101588.03;5034011;28;20234;-64
2023/08/13 06:44:47;;;;;;;5.57;2.83;;;20.50;86.00;;;23.60;53.50;101584.25;5034075;28;20207;-64
2023/08/13 06:47:14;;;;;;;9.20;3.03;;;20.70;86.00;;;23.70;53.53;101589.00;5033525;28;20585;-63
2023/08/13 06:49:41;;;;;;;5.57;2.73;;;20.70;85.70;;;23.79;53.22;101596.44;5033466;28;20228;-64
2023/08/13 06:52:08;;;;;;;9.10;3.33;;;20.80;85.50;;;23.85;52.77;101592.78;5033922;28;20186;-63
2023/08/13 06:54:35;;;;;;;7.57;3.40;;;20.90;85.00;;;23.91;52.24;101589.16;5033884;28;20643;-64
2023/08/13 06:57:03;;;;;;;6.83;3.40;;;20.90;84.40;;;23.95;52.08;101582.22;5033737;28;20198;-64
2023/08/13 06:59:30;;;;;;;8.07;3.53;;;21.00;84.30;;;23.95;52.13;101582.22;5033196;28;20207;-64
2023/08/13 07:01:58;;;;;;;4.93;2.53;;;21.10;83.80;;;24.04;52.50;101586.13;5033229;28;20278;-64
2023/08/13 07:04:25;;;;;;;7.90;2.60;;;21.20;84.00;;;24.19;52.30;101588.31;5033628;28;20244;-64
2023/08/13 07:06:53;;;;;;;7.97;2.87;;;21.30;84.30;;;24.35;51.64;101581.28;5033651;28;20222;-64
2023/08/13 07:09:20;;;;;;;6.07;2.83;;;21.30;83.80;;;24.40;51.56;101581.38;5033354;28;20297;-64
2023/08/13 07:11:47;;;;;;;7.33;3.13;;;21.40;83.20;;;24.42;51.37;101581.94;5033645;28;20201;-64
2023/08/13 07:14:14;;;;;;;7.80;3.03;;;21.50;82.60;;;24.50;51.35;101578.84;5033418;28;20218;-64
2023/08/13 07:16:41;;;;;;;8.90;2.77;;;21.60;82.70;;;24.61;50.54;101580.63;5032750;28;20209;-64
2023/08/13 07:19:09;;;;;;;9.33;3.60;;;21.60;82.50;;;24.55;50.07;101576.25;5032505;28;20214;-64
2023/08/13 07:21:36;;;;;;;7.97;3.37;;;21.60;81.00;;;24.53;50.40;101586.44;5033336;28;20706;-66
2023/08/13 07:24:04;;;;;;;6.70;2.80;;;21.70;81.30;;;24.63;50.68;101586.56;5033071;28;20532;-64
2023/08/13 07:26:31;;;;;;;7.80;3.10;;;21.80;81.50;;;24.68;50.22;101586.66;5033119;28;20281;-63
2023/08/13 07:28:58;;;;;;;10.27;3.37;;;21.80;80.80;;;24.78;49.97;101586.84;5032642;28;20197;-64
2023/08/13 07:31:25;;;;;;;8.17;3.70;;;21.90;80.70;;;24.84;49.33;101597.44;5033303;28;20202;-63
2023/08/13 07:33:55;;;;;;;6.80;2.80;;;21.90;80.10;;;24.96;49.06;101591.94;5033176;28;20190;-63
2023/08/13 07:36:24;;;;;;;6.17;2.73;;;22.00;80.40;;;25.11;48.98;101596.72;5019347;28;20195;-63
2023/08/13 07:38:51;;;;;;;5.53;2.97;;;22.10;80.60;;;25.29;49.30;101599.94;5031658;28;20259;-63
2023/08/13 07:41:18;;;;;;;9.50;3.40;;;22.20;80.50;;;25.38;48.10;101603.84;5033123;28;20742;-63
2023/08/13 07:43:45;;;;;;;6.53;2.93;;;22.30;78.80;;;25.34;48.16;101613.47;5033083;28;20656;-64
2023/08/13 07:46:12;;;;;;;8.90;2.87;;;22.30;78.60;;;25.40;47.53;101611.66;5032651;28;20208;-63
2023/08/13 07:48:39;;;;;;;6.93;2.97;;;22.40;78.40;;;25.58;48.13;101607.88;5032329;28;20277;-64
2023/08/13 07:51:06;;;;;;;10.57;3.87;;;22.50;78.50;;;25.89;47.43;101607.13;5033114;28;20215;-64
2023/08/13 07:53:34;;;;;;;7.17;2.30;;;22.70;78.50;;;26.25;47.31;101602.91;5032789;28;20226;-63
2023/08/13 07:56:02;;;;;;;10.03;3.07;;;22.80;78.60;;;26.85;46.16;101609.63;5032751;28;20191;-64
2023/08/13 07:58:29;;;;;;;6.33;2.87;;;23.10;78.30;;;27.51;44.89;101612.66;5032397;28;20205;-65
2023/08/13 08:00:56;;;;;;;11.80;3.63;;;23.50;77.40;;;28.11;42.91;101604.72;5032589;28;20230;-65
2023/08/13 08:03:24;;;;;;;4.83;2.40;;;23.80;75.90;;;28.71;42.64;101605.81;5032077;28;20202;-65
2023/08/13 08:05:52;;;;;;;6.93;2.90;;;24.30;75.90;;;29.19;40.42;101599.72;5033036;28;20257;-64
2023/08/13 08:08:19;;;;;;;4.73;2.80;;;24.70;72.80;;;29.77;39.69;101602.72;5032610;28;20182;-65
2023/08/13 08:10:48;;;;;;;4.83;2.73;;;25.10;71.90;;;30.35;37.76;101615.38;5032285;28;20219;-63
2023/08/13 08:13:15;;;;;;;7.67;2.73;;;25.50;69.10;;;31.00;38.02;101615.88;5032655;28;20194;-63
2023/08/13 08:15:42;;;;;;;5.57;2.40;;;26.10;69.40;;;31.91;36.85;101613.56;5032432;28;20202;-65
2023/08/13 08:18:09;;;;;;;5.57;2.73;;;26.60;69.10;;;32.99;34.57;101615.03;5032169;28;20245;-65
2023/08/13 08:20:36;;;;;;;5.80;2.50;;;27.20;65.20;;;33.42;33.35;101610.88;5031946;28;20658;-65
2023/08/13 08:23:04;;;;;;;6.83;2.80;;;27.80;63.10;;;34.03;33.26;101598.59;5032589;28;20250;-63
2023/08/13 08:25:31;;;;;;;6.07;2.73;;;28.30;62.10;;;34.67;32.33;101606.28;5032537;28;20592;-63
2023/08/13 08:27:59;;;;;;;7.90;3.40;;;28.80;61.40;;;35.27;30.30;101600.25;5034965;28;20248;-63
2023/08/13 08:30:27;;;;;;;7.95;3.08;;;29.20;57.20;;;35.13;29.74;101605.03;5035722;28;20242;-63
2023/08/13 08:32:54;;;;;;;5.77;3.10;;;29.40;55.60;;;35.00;30.33;101597.69;5036025;28;20488;-64
2023/08/13 08:35:21;;;;;;;4.80;2.73;;;29.60;55.00;;;35.15;30.83;101600.84;5030942;28;20551;-64
2023/08/13 08:37:48;;;;;;;6.53;3.10;;;29.90;55.60;;;35.67;29.16;101590.81;5027090;28;20210;-64
2023/08/13 08:40:15;;;;;;;5.78;2.70;;;30.10;54.20;;;36.05;29.50;101592.91;5035388;28;20211;-63
2023/08/13 08:42:43;;;;;;;3.17;2.70;;;30.40;53.60;;;36.66;28.57;101589.69;5035867;28;20202;-63
2023/08/13 08:45:13;;;;;;;2.92;2.33;;;30.80;54.40;;;37.42;28.11;101592.44;5035790;28;20206;-65
2023/08/13 08:47:42;;;;;;;5.00;2.47;;;31.20;53.60;;;38.08;26.90;101588.66;5035490;28;20190;-64
2023/08/13 08:50:12;;;;;;;3.50;2.03;;;31.60;51.40;;;38.55;26.61;101591.88;5035300;28;20221;-65
2023/08/13 08:52:40;;;;;;;3.17;2.22;;;32.00;51.50;;;38.90;25.35;101595.00;5035546;28;20278;-66
2023/08/13 08:55:10;;;;;;;8.98;3.05;;;32.30;48.10;;;38.67;25.22;101591.06;5035604;28;20198;-65
2023/08/13 08:57:38;;;;;;;3.40;2.20;;;32.50;47.40;;;38.47;25.33;101584.50;5035482;28;20204;-65
2023/08/13 09:00:08;;;;;;;5.15;2.25;;;32.50;46.60;;;38.42;25.28;101602.06;5034830;28;20705;-65
2023/08/13 09:02:40;;;;;;;4.55;2.60;;;32.60;46.50;;;38.21;25.14;101601.28;5035573;28;20201;-65
2023/08/13 09:05:08;;;;;;;6.00;2.28;;;32.70;45.80;;;37.53;26.18;101599.13;5035676;28;20198;-64
2023/08/13 09:07:42;;;;;;;5.00;2.45;;;32.50;45.40;;;36.93;26.31;101594.78;5036086;28;20190;-64
2023/08/13 09:10:11;;;;;;;4.57;2.17;;;32.30;45.30;;;36.06;26.61;101602.75;5034494;28;20744;-64
2023/08/13 09:12:40;;;;;;;4.38;2.08;;;31.90;45.20;;;35.25;27.38;101599.75;5035674;28;20594;-64
2023/08/13 09:15:10;;;;;;;4.45;2.05;;;31.20;45.90;;;34.91;28.85;101599.59;5035052;28;20293;-65
2023/08/13 09:17:39;;;;;;;3.22;2.33;;;30.90;47.40;;;34.29;29.31;101591.41;5035300;28;20266;-64
2023/08/13 09:20:17;;;;;;;4.47;2.08;;;30.60;47.50;;;33.42;30.66;101591.75;5034252;28;20629;-64
2023/08/13 09:22:46;;;;;;;3.47;1.63;;;30.10;48.30;;;33.29;31.21;101598.06;5035105;28;20179;-64
2023/08/13 09:25:14;;;;;;;3.43;1.83;;;29.80;49.80;;;33.62;31.25;101600.63;5034944;28;20195;-64
2023/08/13 09:27:42;;;;;;;4.10;2.03;;;29.70;51.40;;;33.77;31.28;101592.09;5014928;28;20195;-65
2023/08/13 09:30:12;;;;;;;2.50;1.50;;;29.60;51.10;;;33.49;31.10;101596.81;5014420;28;20289;-62
2023/08/13 09:32:41;;;;;;;4.50;1.83;;;29.50;51.20;;;32.90;31.60;101594.22;5015115;28;20501;-62
2023/08/13 09:35:09;;;;;;;4.47;1.77;;;29.30;51.10;;;32.81;31.92;101591.34;5032091;28;20202;-63
2023/08/13 09:37:36;;;;;;;4.33;1.70;;;29.00;51.80;;;33.33;31.52;101590.03;5034541;28;20190;-64
2023/08/13 09:40:05;;;;;;;3.63;1.80;;;28.90;51.80;;;34.07;30.85;101577.72;5033916;28;20210;-64
2023/08/13 09:42:33;;;;;;;3.17;1.80;;;29.10;52.30;;;35.15;29.47;101583.63;5034691;28;20209;-64
2023/08/13 09:45:03;;;;;;;1.58;1.30;;;29.50;52.60;;;36.40;27.71;101575.22;5034185;28;20636;-64
2023/08/13 09:47:35;;;;;;;4.80;2.05;;;29.90;51.70;;;36.51;26.71;101571.03;5034689;28;20217;-63
2023/08/13 09:50:05;;;;;;;3.40;1.92;;;30.40;49.40;;;36.39;26.50;101576.38;5033836;28;20211;-64
2023/08/13 09:52:35;;;;;;;4.53;1.80;;;30.60;47.40;;;35.94;26.84;101568.53;5034456;28;20203;-64
2023/08/13 09:55:11;;;;;;;3.95;2.05;;;30.70;47.90;;;35.61;28.22;101564.66;5034505;28;20285;-64
2023/08/13 09:57:42;;;;;;;2.70;1.40;;;30.70;48.30;;;35.27;27.99;101570.09;5034416;28;20280;-63
2023/08/13 10:00:12;;;;;;;3.13;1.50;;;30.70;47.90;;;35.38;28.61;101565.91;5033824;28;20305;-64
2023/08/13 10:02:42;;;;;;;3.80;1.42;;;30.70;48.00;;;36.19;27.78;101563.34;5034581;28;20655;-64
2023/08/13 10:05:13;;;;;;;4.28;1.80;;;30.70;47.80;;;37.21;25.61;101560.19;5034485;28;20206;-63
2023/08/13 10:07:41;;;;;;;2.28;1.73;;;31.00;46.70;;;37.77;25.05;101563.50;5034460;28;20260;-63
2023/08/13 10:10:09;;;;;;;3.35;1.80;;;31.40;46.30;;;38.02;24.49;101570.72;5033693;28;20297;-64
2023/08/13 10:12:38;;;;;;;3.30;1.75;;;31.60;45.10;;;38.01;24.90;101574.63;5034444;28;20290;-63
2023/08/13 10:15:08;;;;;;;4.70;1.73;;;32.00;45.30;;;37.93;24.93;101567.25;5033876;28;20715;-63
2023/08/13 10:17:35;;;;;;;4.03;1.90;;;32.10;44.40;;;36.94;25.34;101568.94;5034110;28;20194;-65